Time;durP1;ratioP1;P1;durP2;ratioP2;P2;SDS_P1;SDS_P2;PMS_P1;PMS_P2;Temp;Humidity;BMP_temperature;BMP_pressure;BME280_temperature;BME280_humidity;BME280_pressure;Samples;Min_cycle;Max_cycle;Signal;HPM_P1;HPM_P2
2023/07/14 00:01:26;;;;;;;6.53;2.40;;;16.80;99.90;;;;;;5020083;28;20041;-85
2023/07/14 00:03:53;;;;;;;5.45;2.83;;;16.80;99.90;;;;;;5056517;28;20048;-85
2023/07/14 00:06:20;;;;;;;6.28;2.00;;;16.70;99.90;;;;;;5021868;28;20058;-86
2023/07/14 00:08:47;;;;;;;5.88;2.90;;;16.70;99.90;;;;;;5055432;28;20044;-86
2023/07/14 00:11:15;;;;;;;10.05;2.72;;;16.30;99.90;;;;;;5035404;28;20053;-86
2023/07/14 00:13:42;;;;;;;4.93;2.50;;;16.60;99.90;;;;;;5038162;28;20040;-86
2023/07/14 00:16:17;;;;;;;10.93;2.65;;;16.50;99.90;;;;;;5073358;28;20045;-85
2023/07/14 00:18:43;;;;;;;8.30;2.75;;;16.50;99.90;;;;;;5054049;28;20041;-86
2023/07/14 00:21:15;;;;;;;5.55;2.60;;;16.40;99.90;;;;;;5039109;28;20044;-85
2023/07/14 00:23:41;;;;;;;8.25;3.22;;;16.40;99.90;;;;;;5034494;28;20048;-86
2023/07/14 00:26:19;;;;;;;4.20;2.33;;;16.30;99.90;;;;;;5051834;28;20110;-84
2023/07/14 00:28:48;;;;;;;7.22;2.28;;;16.20;99.90;;;;;;5048538;28;20053;-85
2023/07/14 00:31:16;;;;;;;7.22;2.60;;;16.20;99.90;;;;;;5015479;28;20070;-85
2023/07/14 00:33:44;;;;;;;5.93;2.75;;;16.20;99.90;;;;;;5066674;28;20056;-86
2023/07/14 00:36:11;;;;;;;6.18;2.72;;;16.10;99.90;;;;;;5047126;28;20507;-85
2023/07/14 00:38:37;;;;;;;5.75;2.90;;;16.10;99.90;;;;;;5015742;28;20056;-85
2023/07/14 00:41:08;;;;;;;4.60;2.38;;;16.10;99.90;;;;;;5029984;28;20094;-85
2023/07/14 00:43:34;;;;;;;5.95;3.00;;;16.00;99.90;;;;;;5047734;28;20056;-84
2023/07/14 00:46:01;;;;;;;9.98;2.88;;;16.00;99.90;;;;;;5030239;28;20047;-86
2023/07/14 00:48:29;;;;;;;6.13;2.60;;;15.90;99.90;;;;;;5064756;28;20096;-84
2023/07/14 00:50:59;;;;;;;9.07;3.40;;;15.90;99.90;;;;;;5065268;28;20147;-84
2023/07/14 00:53:39;;;;;;;7.70;2.53;;;15.90;99.90;;;;;;5046066;28;20101;-84
2023/07/14 00:56:14;;;;;;;5.78;2.80;;;15.90;99.90;;;;;;5065318;28;20052;-86
2023/07/14 00:58:45;;;;;;;6.40;3.20;;;15.80;99.90;;;;;;5046982;28;20049;-84
2023/07/14 01:01:21;;;;;;;6.88;3.10;;;15.80;99.90;;;;;;5047034;28;20033;-85
2023/07/14 01:03:48;;;;;;;7.55;2.95;;;15.80;99.90;;;;;;5047374;28;20427;-84
2023/07/14 01:06:16;;;;;;;6.72;3.30;;;15.80;99.90;;;;;;5029090;28;20086;-85
2023/07/14 01:08:50;;;;;;;6.70;4.00;;;15.80;99.90;;;;;;5047393;28;20075;-85
2023/07/14 01:11:18;;;;;;;10.15;3.90;;;15.80;99.90;;;;;;5029108;28;20151;-84
2023/07/14 01:13:44;;;;;;;6.68;3.97;;;15.90;99.90;;;;;;5046792;28;20535;-84
2023/07/14 01:16:14;;;;;;;10.05;4.03;;;15.80;99.90;;;;;;5045852;28;20128;-85
2023/07/14 01:18:41;;;;;;;10.07;4.93;;;15.80;99.90;;;;;;5029319;28;20087;-85
2023/07/14 01:21:08;;;;;;;11.30;4.22;;;15.80;99.90;;;;;;5031158;28;20110;-86
2023/07/14 01:23:48;;;;;;;9.82;4.40;;;15.90;99.90;;;;;;4997647;28;20666;-86
2023/07/14 01:26:47;;;;;;;8.57;4.22;;;15.90;99.90;;;;;;5049048;28;20055;-87
2023/07/14 01:29:13;;;;;;;8.25;4.90;;;15.80;99.90;;;;;;5046879;28;20055;-85
2023/07/14 01:31:39;;;;;;;6.68;4.53;;;15.90;99.90;;;;;;5028879;28;20124;-86
2023/07/14 01:34:05;;;;;;;10.13;6.00;;;15.80;99.90;;;;;;5013672;28;20048;-86
2023/07/14 01:36:32;;;;;;;9.57;4.63;;;15.90;99.90;;;;;;5028612;28;20036;-84
2023/07/14 01:38:58;;;;;;;12.88;5.15;;;13.70;99.90;;;;;;5029891;28;20083;-85
2023/07/14 01:41:24;;;;;;;8.52;4.60;;;15.90;99.90;;;;;;5011728;28;20528;-85
2023/07/14 01:43:50;;;;;;;11.65;4.68;;;15.80;99.90;;;;;;5012539;28;20083;-85
2023/07/14 01:46:19;;;;;;;12.88;4.55;;;18.00;99.90;;;;;;5012365;28;20045;-86
2023/07/14 01:49:13;;;;;;;7.00;4.28;;;15.80;99.90;;;;;;5064292;28;20033;-85
2023/07/14 01:51:43;;;;;;;9.57;4.63;;;15.80;99.90;;;;;;5030551;28;20440;-85
2023/07/14 01:54:29;;;;;;;7.80;4.13;;;15.90;99.90;;;;;;5028805;28;20044;-86
2023/07/14 01:56:59;;;;;;;11.93;4.80;;;15.90;99.90;;;;;;5049945;28;20173;-86
2023/07/14 01:59:30;;;;;;;8.75;4.05;;;15.90;99.90;;;;;;5049656;28;20502;-87
2023/07/14 02:01:59;;;;;;;7.20;4.50;;;15.10;99.90;;;;;;5049358;28;20036;-86
2023/07/14 02:04:38;;;;;;;9.25;4.43;;;15.90;99.90;;;;;;5035261;28;20107;-85
2023/07/14 02:07:04;;;;;;;9.65;3.88;;;15.90;99.90;;;;;;5049152;28;20527;-86
2023/07/14 02:09:32;;;;;;;12.05;4.28;;;15.90;99.90;;;;;;5001736;28;20045;-87
2023/07/14 02:12:05;;;;;;;8.25;4.25;;;16.00;99.90;;;;;;5034152;28;20392;-86
2023/07/14 02:15:02;;;;;;;5.65;3.40;;;16.00;99.90;;;;;;5034429;28;20488;-86
2023/07/14 02:17:33;;;;;;;5.25;3.88;;;15.90;99.90;;;;;;5051586;28;20055;-86
2023/07/14 02:20:00;;;;;;;7.40;4.63;;;14.10;99.90;;;;;;5050645;28;20056;-86
2023/07/14 02:22:27;;;;;;;10.32;4.82;;;15.90;99.90;;;;;;5036888;28;20131;-87
2023/07/14 02:24:54;;;;;;;9.20;4.20;;;15.90;99.90;;;;;;5035519;28;20048;-86
2023/07/14 02:27:20;;;;;;;9.10;4.50;;;15.10;99.90;;;;;;5053415;28;20097;-86
2023/07/14 02:29:46;;;;;;;7.53;4.28;;;15.80;99.90;;;;;;5053267;28;20781;-87
2023/07/14 02:32:32;;;;;;;7.57;4.07;;;15.80;99.90;;;;;;5019559;28;20047;-86
2023/07/14 02:35:12;;;;;;;7.03;4.18;;;15.80;99.90;;;;;;5037773;28;20041;-87
2023/07/14 02:38:03;;;;;;;8.38;4.20;;;15.80;99.90;;;;;;5053078;28;20048;-86
2023/07/14 02:40:41;;;;;;;7.10;4.10;;;15.80;99.90;;;;;;5023344;28;20424;-86
2023/07/14 02:43:09;;;;;;;12.35;3.88;;;15.80;99.90;;;;;;5037964;28;20122;-86
2023/07/14 02:45:41;;;;;;;7.93;4.68;;;15.80;99.90;;;;;;5035483;28;20044;-86
2023/07/14 02:48:11;;;;;;;6.32;4.93;;;15.80;99.90;;;;;;5038679;28;20123;-86
2023/07/14 02:50:37;;;;;;;9.10;5.15;;;15.80;99.90;;;;;;5036724;28;20044;-85
2023/07/14 02:53:02;;;;;;;9.88;5.03;;;15.90;99.90;;;;;;5036219;28;20047;-86
2023/07/14 02:55:29;;;;;;;14.48;7.45;;;15.80;99.90;;;;;;5003707;28;20049;-86
2023/07/14 02:57:55;;;;;;;13.63;5.82;;;15.80;99.90;;;;;;5016938;28;20048;-86
2023/07/14 03:00:21;;;;;;;12.20;5.82;;;15.80;99.90;;;;;;5001444;28;20071;-85
2023/07/14 03:02:47;;;;;;;9.57;5.75;;;15.80;99.90;;;;;;5066227;28;20048;-85
2023/07/14 03:05:12;;;;;;;6.90;4.75;;;15.80;99.90;;;;;;5032363;28;20453;-85
2023/07/14 03:07:39;;;;;;;12.27;6.07;;;16.40;99.90;;;;;;5047119;28;20048;-86
2023/07/14 03:10:06;;;;;;;9.60;5.13;;;17.20;99.90;;;;;;5065988;28;20124;-84
2023/07/14 03:12:32;;;;;;;9.38;5.20;;;15.70;99.90;;;;;;5048662;28;20514;-84
2023/07/14 03:14:58;;;;;;;7.47;5.28;;;15.70;99.90;;;;;;5047791;28;20480;-86
2023/07/14 03:17:23;;;;;;;11.07;5.05;;;15.80;99.90;;;;;;5034379;28;20083;-85
2023/07/14 03:19:49;;;;;;;11.63;7.13;;;15.70;99.90;;;;;;5032328;28;20120;-87
2023/07/14 03:22:15;;;;;;;7.35;4.82;;;15.70;99.90;;;;;;5016784;28;20399;-86
2023/07/14 03:24:41;;;;;;;11.07;5.40;;;15.70;99.90;;;;;;5032402;28;20151;-86
2023/07/14 03:27:07;;;;;;;11.55;5.93;;;15.70;99.90;;;;;;5032006;28;20468;-85
2023/07/14 03:29:33;;;;;;;7.90;5.75;;;15.70;99.90;;;;;;5016186;28;20080;-86
2023/07/14 03:31:58;;;;;;;11.20;5.88;;;15.60;99.90;;;;;;5015331;28;20405;-86
2023/07/14 03:34:24;;;;;;;8.60;5.82;;;15.60;99.90;;;;;;5049852;28;20045;-86
2023/07/14 03:36:50;;;;;;;7.35;5.57;;;16.30;99.90;;;;;;5015888;28;20052;-86
2023/07/14 03:39:28;;;;;;;8.57;6.22;;;15.50;99.90;;;;;;5033696;28;20967;-85
2023/07/14 03:41:55;;;;;;;8.88;5.13;;;15.50;99.90;;;;;;5049287;28;20044;-86
2023/07/14 03:44:22;;;;;;;11.20;5.80;;;15.50;99.90;;;;;;5032185;28;20488;-86
2023/07/14 03:46:48;;;;;;;11.25;5.65;;;15.50;99.90;;;;;;5049172;28;20032;-86
2023/07/14 03:49:14;;;;;;;7.40;4.97;;;15.50;99.90;;;;;;5032259;28;20040;-86
2023/07/14 03:51:40;;;;;;;9.25;4.75;;;15.40;99.90;;;;;;5048766;28;20051;-86
2023/07/14 03:54:07;;;;;;;5.95;4.72;;;15.40;99.90;;;;;;5048399;28;20044;-86
2023/07/14 03:56:33;;;;;;;11.88;5.10;;;15.40;99.90;;;;;;5034392;28;20476;-85
2023/07/14 03:58:59;;;;;;;10.15;4.85;;;15.50;99.90;;;;;;5033206;28;20048;-86
2023/07/14 04:01:25;;;;;;;10.35;4.32;;;15.40;99.90;;;;;;5051881;28;20599;-86
2023/07/14 04:03:51;;;;;;;8.23;4.93;;;15.40;99.90;;;;;;5002507;28;20104;-85
2023/07/14 04:06:17;;;;;;;12.23;4.40;;;15.40;99.90;;;;;;5052863;28;20059;-87
2023/07/14 04:08:44;;;;;;;9.68;4.43;;;15.40;99.90;;;;;;5036543;28;20089;-87
2023/07/14 04:11:11;;;;;;;9.10;4.50;;;15.50;99.90;;;;;;5032150;28;20049;-86
2023/07/14 04:13:37;;;;;;;7.70;4.13;;;15.60;99.90;;;;;;5048903;28;20519;-86
2023/07/14 04:16:04;;;;;;;7.28;4.40;;;15.50;99.90;;;;;;5046545;28;20054;-86
2023/07/14 04:18:31;;;;;;;8.80;3.92;;;15.50;99.90;;;;;;5029918;28;20048;-87
2023/07/14 04:21:09;;;;;;;9.30;4.35;;;15.50;99.90;;;;;;5013168;28;20222;-86
2023/07/14 04:23:36;;;;;;;5.55;3.65;;;15.50;99.90;;;;;;5047579;28;20117;-87
2023/07/14 04:26:03;;;;;;;7.38;3.60;;;15.60;99.90;;;;;;5031472;28;20079;-86
2023/07/14 04:28:29;;;;;;;8.95;3.50;;;15.60;99.90;;;;;;5048399;28;20072;-86
2023/07/14 04:30:56;;;;;;;7.72;3.83;;;15.60;99.90;;;;;;5050741;28;20044;-87
2023/07/14 04:33:22;;;;;;;9.18;3.67;;;15.70;99.90;;;;;;5020996;28;20531;-86
2023/07/14 04:35:51;;;;;;;6.75;2.60;;;15.70;99.90;;;;;;5025920;28;20064;-88
2023/07/14 04:38:17;;;;;;;7.50;2.83;;;15.80;99.90;;;;;;5041679;28;20067;-87
2023/07/14 04:40:43;;;;;;;8.35;2.95;;;15.80;99.90;;;;;;5037177;28;20087;-87
2023/07/14 04:43:13;;;;;;;5.07;2.80;;;15.90;99.90;;;;;;5016986;28;20088;-89
2023/07/14 04:45:43;;;;;;;8.65;2.72;;;15.90;99.90;;;;;;5065828;28;20496;-86
2023/07/14 04:48:12;;;;;;;8.15;3.13;;;16.00;99.90;;;;;;5016183;28;20044;-85
2023/07/14 04:50:38;;;;;;;6.72;2.65;;;15.90;99.90;;;;;;5029423;28;20044;-85
2023/07/14 04:53:08;;;;;;;4.18;2.40;;;16.10;99.90;;;;;;5046838;28;20128;-85
2023/07/14 04:55:42;;;;;;;8.80;2.17;;;16.10;99.90;;;;;;5064729;28;20050;-87
2023/07/14 04:58:09;;;;;;;5.88;2.47;;;16.20;99.90;;;;;;5030964;28;20079;-87
2023/07/14 05:00:37;;;;;;;5.45;2.17;;;16.20;99.90;;;;;;5013781;28;20041;-88
2023/07/14 05:03:03;;;;;;;5.50;2.30;;;16.30;99.90;;;;;;5046425;28;20084;-86
2023/07/14 05:05:29;;;;;;;7.93;3.35;;;16.30;99.90;;;;;;5029916;28;20041;-84
2023/07/14 05:07:55;;;;;;;5.50;2.50;;;16.40;99.90;;;;;;5063878;28;20052;-84
2023/07/14 05:10:23;;;;;;;8.77;4.15;;;16.40;99.90;;;;;;5064527;28;20060;-85
2023/07/14 05:12:54;;;;;;;6.85;2.63;;;16.50;99.90;;;;;;5029324;28;20044;-83
2023/07/14 05:15:20;;;;;;;6.63;2.90;;;16.50;99.90;;;;;;5046005;28;20779;-84
2023/07/14 05:17:46;;;;;;;5.57;2.17;;;16.50;99.90;;;;;;5046773;28;20101;-84
2023/07/14 05:20:14;;;;;;;10.85;2.78;;;16.60;99.90;;;;;;5045422;28;20156;-84
2023/07/14 05:22:48;;;;;;;5.22;2.28;;;16.60;99.90;;;;;;5046643;28;20919;-85
2023/07/14 05:25:16;;;;;;;5.78;2.47;;;16.70;99.90;;;;;;5045642;28;20048;-84
2023/07/14 05:27:46;;;;;;;7.35;2.35;;;16.70;99.90;;;;;;5064092;28;20072;-82
2023/07/14 05:30:15;;;;;;;8.93;2.80;;;16.80;99.90;;;;;;5064267;28;20492;-83
2023/07/14 05:32:49;;;;;;;4.13;2.50;;;16.80;99.90;;;;;;5049421;28;20049;-85
2023/07/14 05:35:16;;;;;;;6.65;2.55;;;16.90;99.90;;;;;;5033441;28;20052;-85
2023/07/14 05:37:42;;;;;;;8.63;3.15;;;17.00;99.90;;;;;;5032590;28;20043;-85
2023/07/14 05:40:10;;;;;;;8.82;2.22;;;17.00;99.90;;;;;;5033371;28;20300;-83
2023/07/14 05:42:37;;;;;;;11.57;2.63;;;17.10;99.90;;;;;;5067107;28;20087;-85
2023/07/14 05:45:03;;;;;;;10.48;3.00;;;17.10;99.90;;;;;;5032893;28;20048;-85
2023/07/14 05:47:30;;;;;;;14.63;2.75;;;17.20;99.90;;;;;;5049986;28;20075;-86
2023/07/14 05:49:56;;;;;;;10.07;2.00;;;17.30;99.90;;;;;;5032607;28;20055;-89
2023/07/14 05:52:22;;;;;;;6.60;2.30;;;17.30;99.90;;;;;;5000802;28;20135;-85
2023/07/14 05:54:48;;;;;;;6.85;2.83;;;17.40;99.90;;;;;;5015879;28;20046;-86
2023/07/14 05:57:15;;;;;;;10.68;2.33;;;17.50;99.90;;;;;;5049776;28;20489;-87
2023/07/14 05:59:41;;;;;;;6.72;2.08;;;17.50;99.90;;;;;;5033077;28;20550;-87
2023/07/14 06:02:11;;;;;;;5.75;2.05;;;17.70;99.90;;;;;;5016843;28;20048;-86
2023/07/14 06:04:37;;;;;;;8.02;2.20;;;17.70;99.90;;;;;;5033408;28;20056;-86
2023/07/14 06:07:04;;;;;;;8.73;2.25;;;17.70;99.90;;;;;;5049476;28;20097;-87
2023/07/14 06:09:34;;;;;;;5.85;1.83;;;17.80;99.90;;;;;;5033920;28;20068;-87
2023/07/14 06:12:02;;;;;;;5.55;1.80;;;17.90;99.90;;;;;;5033462;28;20044;-87
2023/07/14 06:14:31;;;;;;;6.03;2.15;;;17.90;99.90;;;;;;5033087;28;20624;-87
2023/07/14 06:16:57;;;;;;;5.22;1.88;;;18.00;99.90;;;;;;5049819;28;20052;-87
2023/07/14 06:19:23;;;;;;;7.97;2.05;;;18.10;99.90;;;;;;5016514;28;20051;-87
2023/07/14 06:21:49;;;;;;;6.80;2.25;;;18.10;99.90;;;;;;5017408;28;20119;-86
2023/07/14 06:24:15;;;;;;;6.38;2.25;;;18.20;99.90;;;;;;5017776;28;20055;-87
2023/07/14 06:26:41;;;;;;;10.07;3.20;;;18.30;99.90;;;;;;5034087;28;20442;-87
2023/07/14 06:29:06;;;;;;;5.45;1.67;;;18.30;99.90;;;;;;5058835;28;20075;-88
2023/07/14 06:31:33;;;;;;;5.00;1.73;;;18.30;99.90;;;;;;5063928;28;20048;-88
2023/07/14 06:33:59;;;;;;;7.25;2.03;;;18.40;99.90;;;;;;5045793;28;20036;-87
2023/07/14 06:36:25;;;;;;;3.92;1.50;;;18.50;99.90;;;;;;5041188;28;20044;-87
2023/07/14 06:38:51;;;;;;;8.95;2.55;;;18.50;99.90;;;;;;5055807;28;20047;-90
2023/07/14 06:41:17;;;;;;;8.20;2.33;;;18.60;99.90;;;;;;5004101;28;20053;-87
2023/07/14 06:43:43;;;;;;;8.10;1.88;;;18.70;99.90;;;;;;5007847;28;20051;-87
2023/07/14 06:46:09;;;;;;;10.82;2.10;;;18.70;99.90;;;;;;5047897;28;20128;-89
2023/07/14 06:48:34;;;;;;;7.95;2.53;;;18.80;99.90;;;;;;5045090;28;20075;-88
2023/07/14 06:51:00;;;;;;;4.90;2.13;;;18.90;99.90;;;;;;5034786;28;20052;-88
2023/07/14 06:53:26;;;;;;;4.18;2.22;;;18.90;99.90;;;;;;5035521;28;20044;-87
2023/07/14 06:55:52;;;;;;;6.95;2.20;;;18.90;99.90;;;;;;5003166;28;20040;-89
2023/07/14 06:58:18;;;;;;;5.30;2.00;;;19.00;99.90;;;;;;5017200;28;20492;-88
2023/07/14 07:00:44;;;;;;;8.07;1.70;;;19.00;99.90;;;;;;5033074;28;20032;-88
2023/07/14 07:03:10;;;;;;;6.38;1.95;;;19.10;99.90;;;;;;5032978;28;20053;-88
2023/07/14 07:05:42;;;;;;;3.47;1.50;;;19.20;99.90;;;;;;5016729;28;20102;-89
2023/07/14 07:08:15;;;;;;;6.07;2.13;;;19.20;99.90;;;;;;5049670;28;20462;-88
2023/07/14 07:10:42;;;;;;;6.15;1.75;;;19.30;99.90;;;;;;5032843;28;20067;-88
2023/07/14 07:13:08;;;;;;;10.90;2.03;;;19.40;99.90;;;;;;5048820;28;20088;-88
2023/07/14 07:15:34;;;;;;;5.25;1.60;;;19.50;99.90;;;;;;5032056;28;20459;-87
2023/07/14 07:18:00;;;;;;;7.13;2.35;;;19.60;99.90;;;;;;5047774;28;20064;-87
2023/07/14 07:20:25;;;;;;;8.07;1.83;;;19.70;99.90;;;;;;5047790;28;20048;-87
2023/07/14 07:22:51;;;;;;;7.22;1.67;;;19.80;99.90;;;;;;5031647;28;20049;-87
2023/07/14 07:25:17;;;;;;;5.57;1.50;;;19.80;99.90;;;;;;5030665;28;20057;-85
2023/07/14 07:27:43;;;;;;;5.53;1.63;;;19.90;99.90;;;;;;5048376;28;20384;-86
2023/07/14 07:30:10;;;;;;;5.50;1.60;;;19.90;99.90;;;;;;5048148;28;20056;-86
2023/07/14 07:32:36;;;;;;;4.97;1.70;;;19.90;99.90;;;;;;5030946;28;20131;-87
2023/07/14 07:35:03;;;;;;;3.80;1.63;;;20.10;99.90;;;;;;5031382;28;20044;-87
2023/07/14 07:37:33;;;;;;;5.00;2.50;;;20.10;99.90;;;;;;5047718;28;20094;-85
2023/07/14 07:40:00;;;;;;;6.75;2.95;;;20.10;99.90;;;;;;5031338;28;20063;-85
2023/07/14 07:42:27;;;;;;;5.97;2.28;;;20.20;99.90;;;;;;5046638;28;20124;-83
2023/07/14 07:44:53;;;;;;;4.80;2.55;;;20.30;99.90;;;;;;5065948;28;20040;-83
2023/07/14 07:47:19;;;;;;;5.68;2.17;;;20.30;99.90;;;;;;5013680;28;20044;-85
2023/07/14 07:49:45;;;;;;;4.85;1.75;;;20.40;99.90;;;;;;5030350;28;20080;-84
2023/07/14 07:52:12;;;;;;;9.05;1.70;;;20.40;99.90;;;;;;5065707;28;20086;-85
2023/07/14 07:54:41;;;;;;;5.82;2.53;;;20.50;99.90;;;;;;5046817;28;20106;-85
2023/07/14 07:57:08;;;;;;;8.60;1.88;;;20.50;99.90;;;;;;5047982;28;20041;-91
2023/07/14 07:59:35;;;;;;;6.53;1.42;;;20.50;99.90;;;;;;5030446;28;20056;-87
2023/07/14 08:02:01;;;;;;;4.32;1.50;;;20.60;99.90;;;;;;4999286;28;20036;-88
2023/07/14 08:04:28;;;;;;;2.60;1.40;;;20.80;99.90;;;;;;5031173;28;20056;-88
2023/07/14 08:06:54;;;;;;;4.20;1.83;;;20.90;99.90;;;;;;5031063;28;20052;-89
2023/07/14 08:09:20;;;;;;;5.65;1.85;;;20.90;99.90;;;;;;5030935;28;20450;-87
2023/07/14 08:11:55;;;;;;;3.42;1.42;;;19.90;99.90;;;;;;5030355;28;20099;-87
2023/07/14 08:14:21;;;;;;;3.60;1.30;;;21.00;99.90;;;;;;5030442;28;20072;-88
2023/07/14 08:16:47;;;;;;;7.03;2.13;;;20.80;99.90;;;;;;5031015;28;20154;-89
2023/07/14 08:19:13;;;;;;;8.30;2.92;;;20.90;99.90;;;;;;5014866;28;20542;-89
2023/07/14 08:21:39;;;;;;;4.93;2.30;;;19.80;99.90;;;;;;5030905;28;20131;-87
2023/07/14 08:24:09;;;;;;;4.20;2.65;;;21.00;99.90;;;;;;5031660;28;20079;-91
2023/07/14 08:26:37;;;;;;;7.28;2.88;;;21.10;99.90;;;;;;5048881;28;20049;-92
2023/07/14 08:29:04;;;;;;;6.25;3.05;;;21.30;99.90;;;;;;5015919;28;20052;-87
2023/07/14 08:31:31;;;;;;;3.78;2.05;;;21.40;99.90;;;;;;5034415;28;20045;-89
2023/07/14 08:33:57;;;;;;;5.78;2.50;;;21.30;99.90;;;;;;5036820;28;20049;-90
2023/07/14 08:36:24;;;;;;;3.90;2.25;;;21.50;99.90;;;;;;5022400;28;20044;-90
2023/07/14 08:38:54;;;;;;;3.35;2.17;;;21.50;99.90;;;;;;5025204;28;20044;-89
2023/07/14 08:41:41;;;;;;;4.10;2.47;;;20.80;99.90;;;;;;5023845;28;20064;-88
2023/07/14 08:44:53;;;;;;;3.83;1.90;;;21.70;99.90;;;;;;5039453;28;20051;-91
2023/07/14 08:48:12;;;;;;;7.63;2.30;;;21.80;99.90;;;;;;5038357;28;20041;-92
2023/07/14 08:50:38;;;;;;;5.13;1.42;;;22.00;99.90;;;;;;4992561;28;20395;-88
2023/07/14 08:53:14;;;;;;;5.10;2.03;;;22.00;99.90;;;;;;5030048;28;20074;-87
2023/07/14 08:55:40;;;;;;;2.17;1.40;;;22.00;99.90;;;;;;5046512;28;20044;-87
2023/07/14 08:58:16;;;;;;;3.92;1.90;;;21.10;99.90;;;;;;5030011;28;20092;-89
2023/07/14 09:01:02;;;;;;;4.45;1.20;;;21.80;99.90;;;;;;5030522;28;20459;-89
2023/07/14 09:03:51;;;;;;;2.78;1.40;;;21.70;99.90;;;;;;5047167;28;20056;-88
2023/07/14 09:06:17;;;;;;;4.68;1.98;;;21.40;99.80;;;;;;5032390;28;20671;-87
2023/07/14 09:08:44;;;;;;;3.55;1.60;;;21.50;99.90;;;;;;5033919;28;20048;-87
2023/07/14 09:11:34;;;;;;;4.47;1.88;;;21.60;99.90;;;;;;5033827;28;20652;-89
2023/07/14 09:13:59;;;;;;;5.10;1.48;;;21.80;99.90;;;;;;5034249;28;20067;-87
2023/07/14 09:16:31;;;;;;;9.18;1.50;;;22.10;99.90;;;;;;5033802;28;20563;-87
2023/07/14 09:19:04;;;;;;;2.30;1.17;;;22.30;99.90;;;;;;5034045;28;20518;-86
2023/07/14 09:21:51;;;;;;;3.33;1.10;;;22.50;99.90;;;;;;5033399;28;20040;-88
2023/07/14 09:25:02;;;;;;;3.38;1.13;;;22.70;99.40;;;;;;5050438;28;20565;-90
2023/07/14 09:27:30;;;;;;;3.05;1.17;;;22.80;97.60;;;;;;5030202;28;20491;-89
2023/07/14 09:29:57;;;;;;;1.70;0.98;;;22.90;98.40;;;;;;5034032;28;20484;-87
2023/07/14 09:32:37;;;;;;;2.42;1.00;;;23.10;98.00;;;;;;5033435;28;20048;-89
2023/07/14 09:35:14;;;;;;;6.03;1.80;;;23.20;97.10;;;;;;5033025;28;20078;-87
2023/07/14 09:37:54;;;;;;;2.97;0.90;;;23.20;97.10;;;;;;5050235;28;20131;-90
2023/07/14 09:40:26;;;;;;;3.55;1.10;;;23.40;97.20;;;;;;5033232;28;20036;-88
2023/07/14 09:42:53;;;;;;;3.80;1.30;;;23.60;96.90;;;;;;5049064;28;20088;-88
2023/07/14 09:45:26;;;;;;;3.03;1.63;;;23.70;97.00;;;;;;5049427;28;20119;-90
2023/07/14 09:48:15;;;;;;;3.75;1.00;;;23.80;96.00;;;;;;5033433;28;20124;-89
2023/07/14 09:50:56;;;;;;;3.45;1.48;;;24.10;94.60;;;;;;5050934;28;20040;-93
2023/07/14 09:53:29;;;;;;;4.45;1.80;;;23.50;95.60;;;;;;5035296;28;20075;-90
2023/07/14 09:56:06;;;;;;;2.88;1.40;;;23.50;95.80;;;;;;5033323;28;20086;-90
2023/07/14 09:58:33;;;;;;;2.85;1.40;;;23.50;95.90;;;;;;5033291;28;20068;-90
2023/07/14 10:01:06;;;;;;;4.03;1.60;;;23.60;95.90;;;;;;5017018;28;20479;-89
2023/07/14 10:03:47;;;;;;;4.57;1.10;;;23.70;95.60;;;;;;5033947;28;20051;-91
2023/07/14 10:06:22;;;;;;;5.32;1.42;;;24.00;95.00;;;;;;5041672;28;20511;-91
2023/07/14 10:08:57;;;;;;;2.92;1.30;;;23.30;95.50;;;;;;5042802;28;20503;-90
2023/07/14 10:11:24;;;;;;;3.63;1.33;;;23.00;95.10;;;;;;5042344;28;20044;-92
2023/07/14 10:13:59;;;;;;;3.20;1.55;;;22.90;96.10;;;;;;5040928;28;20131;-90
2023/07/14 10:16:27;;;;;;;4.43;2.08;;;21.40;95.60;;;;;;5059419;28;20129;-94
2023/07/14 10:19:12;;;;;;;2.75;1.40;;;22.60;95.70;;;;;;5059979;28;20133;-92
2023/07/14 10:21:48;;;;;;;2.97;1.58;;;22.50;96.20;;;;;;5044051;28;20063;-91
2023/07/14 10:24:20;;;;;;;4.65;2.05;;;22.40;96.50;;;;;;5027369;28;20037;-92
2023/07/14 10:26:55;;;;;;;5.55;1.90;;;22.60;96.50;;;;;;5042404;28;20041;-91
2023/07/14 10:29:27;;;;;;;3.60;1.40;;;22.70;96.70;;;;;;5060888;28;20510;-91
2023/07/14 10:32:09;;;;;;;3.17;1.75;;;24.80;96.60;;;;;;5042293;28;20139;-92
2023/07/14 10:34:57;;;;;;;3.35;1.50;;;21.20;94.80;;;;;;5043481;28;20587;-92
2023/07/14 10:37:35;;;;;;;3.22;1.55;;;23.50;95.50;;;;;;5043721;28;20052;-92
2023/07/14 10:40:35;;;;;;;3.35;1.40;;;23.30;94.80;;;;;;5059660;28;20131;-93
2023/07/14 10:43:16;;;;;;;4.30;1.35;;;23.50;94.00;;;;;;5000262;28;20175;-91
2023/07/14 10:45:58;;;;;;;6.45;1.85;;;23.50;94.20;;;;;;5057718;28;20048;-92
2023/07/14 10:48:33;;;;;;;3.70;1.73;;;23.70;94.10;;;;;;5055692;28;20040;-91
2023/07/14 10:51:04;;;;;;;6.05;1.65;;;23.50;93.20;;;;;;5036244;28;20049;-84
2023/07/14 10:53:56;;;;;;;6.05;1.73;;;23.00;93.80;;;;;;5054896;28;20058;-89
2023/07/14 10:56:36;;;;;;;2.85;1.20;;;23.30;93.90;;;;;;5041329;28;20080;-90
2023/07/14 10:59:21;;;;;;;3.70;1.65;;;23.20;93.80;;;;;;5039259;28;20040;-92
2023/07/14 11:02:31;;;;;;;6.03;1.90;;;23.10;93.80;;;;;;5043130;28;20120;-93
2023/07/14 11:05:04;;;;;;;4.88;1.67;;;23.10;94.10;;;;;;4958572;28;20074;-94
2023/07/14 11:07:56;;;;;;;4.47;1.60;;;23.50;94.60;;;;;;5030123;28;20056;-95
2023/07/14 11:10:47;;;;;;;3.20;1.27;;;23.80;94.00;;;;;;5041504;28;20594;-93
2023/07/14 11:13:29;;;;;;;4.50;1.35;;;23.80;93.90;;;;;;5039530;28;20072;-94
2023/07/14 11:16:03;;;;;;;2.17;1.38;;;24.10;93.30;;;;;;5038624;28;20036;-93
2023/07/14 11:18:48;;;;;;;3.72;1.48;;;24.40;93.20;;;;;;5039783;28;20411;-92
2023/07/14 11:21:38;;;;;;;3.53;1.48;;;24.60;92.30;;;;;;5038776;28;20045;-95
2023/07/14 11:24:19;;;;;;;8.25;1.90;;;24.80;91.80;;;;;;5060191;28;20108;-94
2023/07/14 11:27:03;;;;;;;3.03;1.65;;;25.10;92.50;;;;;;5024371;28;20079;-94
2023/07/14 11:29:39;;;;;;;4.63;1.63;;;25.30;91.90;;;;;;5056772;28;20048;-91
2023/07/14 11:32:20;;;;;;;5.18;1.70;;;24.80;91.80;;;;;;5042692;28;20047;-90
2023/07/14 11:35:01;;;;;;;4.05;2.03;;;24.30;91.40;;;;;;5050570;28;20102;-95
2023/07/14 11:38:03;;;;;;;3.22;1.65;;;24.00;92.60;;;;;;5051087;28;20052;-95
2023/07/14 11:40:37;;;;;;;3.58;1.50;;;24.00;91.50;;;;;;5051037;28;20406;-95
2023/07/14 11:43:10;;;;;;;3.47;1.60;;;23.90;92.00;;;;;;5016334;28;20112;-94
2023/07/14 11:45:39;;;;;;;4.18;1.73;;;24.80;92.10;;;;;;5035883;28;20078;-93
2023/07/14 11:48:06;;;;;;;3.25;1.75;;;25.00;92.10;;;;;;5016446;28;20098;-96
2023/07/14 11:50:35;;;;;;;2.05;1.38;;;24.20;92.10;;;;;;5033528;28;20060;-91
2023/07/14 11:53:06;;;;;;;2.35;1.35;;;24.50;91.80;;;;;;4999082;28;20514;-92
2023/07/14 11:55:37;;;;;;;3.75;1.88;;;24.70;91.60;;;;;;5033140;28;20073;-92
2023/07/14 11:58:04;;;;;;;3.55;1.35;;;25.80;91.40;;;;;;5018205;28;20491;-92
2023/07/14 12:00:38;;;;;;;5.97;1.70;;;24.70;91.10;;;;;;5031295;28;20066;-92
2023/07/14 12:03:09;;;;;;;3.65;1.80;;;23.70;90.50;;;;;;5034736;28;20047;-95
2023/07/14 12:05:38;;;;;;;3.63;1.85;;;24.90;90.60;;;;;;5032315;28;20045;-90
2023/07/14 12:08:10;;;;;;;4.35;1.52;;;25.10;90.70;;;;;;5037314;28;20045;-89
2023/07/14 12:10:40;;;;;;;3.53;1.85;;;25.30;90.10;;;;;;5041049;28;20046;-87
2023/07/14 12:13:18;;;;;;;3.45;1.65;;;26.20;90.20;;;;;;5045568;28;20048;-90
2023/07/14 12:15:56;;;;;;;2.00;1.30;;;25.40;89.20;;;;;;5059366;28;20119;-91
2023/07/14 12:18:30;;;;;;;3.35;1.50;;;25.10;90.00;;;;;;5038931;28;20036;-90
2023/07/14 12:21:14;;;;;;;3.90;1.65;;;25.00;89.50;;;;;;5045545;28;20076;-90
2023/07/14 12:23:48;;;;;;;2.60;1.67;;;24.80;90.20;;;;;;5045044;28;20048;-89
2023/07/14 12:26:36;;;;;;;2.70;1.25;;;25.00;90.20;;;;;;5040755;28;20055;-89
2023/07/14 12:29:14;;;;;;;4.25;1.80;;;25.30;88.90;;;;;;5041809;28;20054;-91
2023/07/14 12:31:41;;;;;;;2.88;1.60;;;25.60;88.50;;;;;;5035569;28;20550;-90
2023/07/14 12:34:15;;;;;;;3.90;1.50;;;25.70;89.20;;;;;;5034252;28;20047;-89
2023/07/14 12:36:42;;;;;;;4.32;1.73;;;26.90;87.90;;;;;;5051625;28;20044;-89
2023/07/14 12:39:10;;;;;;;3.38;1.70;;;25.70;88.00;;;;;;5032662;28;20475;-91
2023/07/14 12:41:39;;;;;;;4.82;1.67;;;25.60;87.70;;;;;;5048708;28;20084;-89
2023/07/14 12:44:07;;;;;;;4.05;1.92;;;25.40;87.50;;;;;;5030000;28;20052;-90
2023/07/14 12:46:36;;;;;;;3.78;1.75;;;25.10;87.30;;;;;;5048134;28;20048;-92
2023/07/14 12:49:29;;;;;;;2.50;1.58;;;25.00;87.30;;;;;;5031533;28;20056;-90
2023/07/14 12:51:55;;;;;;;4.13;1.77;;;24.80;86.90;;;;;;5032361;28;20048;-91
2023/07/14 12:54:27;;;;;;;3.65;2.25;;;24.60;88.90;;;;;;5035124;28;20047;-90
2023/07/14 12:56:55;;;;;;;8.20;1.85;;;24.50;88.20;;;;;;5040698;28;20368;-91
2023/07/14 12:59:21;;;;;;;7.05;1.85;;;24.30;88.60;;;;;;5038122;28;20044;-88
2023/07/14 13:01:50;;;;;;;4.70;1.95;;;24.10;89.10;;;;;;5034514;28;20048;-92
2023/07/14 13:04:19;;;;;;;2.75;1.77;;;24.00;89.80;;;;;;5032913;28;20037;-90
2023/07/14 13:06:46;;;;;;;2.65;1.52;;;24.20;89.90;;;;;;5032019;28;20194;-85